createdAt,value
2018-07-06T00:02:25.521Z,4.05
2018-07-06T00:05:04.803Z,3.50
2018-07-06T00:07:44.031Z,6.18
2018-07-06T00:10:23.151Z,3.72
2018-07-06T00:13:02.400Z,3.12
2018-07-06T00:15:41.652Z,3.10
2018-07-06T00:18:20.708Z,3.83
2018-07-06T00:20:59.795Z,5.30
2018-07-06T00:23:38.962Z,5.80
2018-07-06T00:26:18.199Z,3.37
2018-07-06T00:28:57.392Z,7.20
2018-07-06T00:31:36.566Z,6.60
2018-07-06T00:34:15.814Z,2.97
2018-07-06T00:36:55.022Z,3.95
2018-07-06T00:39:34.290Z,5.10
2018-07-06T00:42:13.570Z,10.18
2018-07-06T00:44:52.685Z,5.90
2018-07-06T00:47:31.907Z,22.50
2018-07-06T00:50:11.051Z,3.95
2018-07-06T00:52:50.187Z,4.50
2018-07-06T00:55:29.204Z,3.37
2018-07-06T00:58:08.498Z,3.47
2018-07-06T01:00:47.587Z,4.07
2018-07-06T01:03:26.785Z,3.47
2018-07-06T01:06:05.900Z,3.95
2018-07-06T01:08:45.198Z,4.93
2018-07-06T01:11:24.458Z,4.22
2018-07-06T01:14:03.670Z,3.75
2018-07-06T01:16:42.757Z,4.37
2018-07-06T01:19:21.902Z,3.90
2018-07-06T01:22:01.100Z,3.60
2018-07-06T01:24:40.430Z,3.80
2018-07-06T01:27:19.628Z,5.85
2018-07-06T01:29:58.840Z,3.80
2018-07-06T01:32:38.156Z,5.93
2018-07-06T01:35:17.425Z,13.15
2018-07-06T01:37:56.783Z,5.85
2018-07-06T01:40:36.062Z,5.95
2018-07-06T01:43:15.223Z,4.28
2018-07-06T01:45:54.459Z,5.75
2018-07-06T01:48:33.646Z,3.95
2018-07-06T01:51:12.935Z,4.70
2018-07-06T01:53:51.974Z,4.57
2018-07-06T01:56:31.153Z,3.45
2018-07-06T01:59:10.408Z,5.93
2018-07-06T02:01:49.640Z,5.05
2018-07-06T02:04:29.787Z,4.10
2018-07-06T02:07:08.817Z,5.22
2018-07-06T02:09:47.934Z,7.30
2018-07-06T02:12:27.216Z,8.07
2018-07-06T02:15:06.550Z,5.12
2018-07-06T02:17:46.063Z,3.95
2018-07-06T02:20:25.365Z,5.30
2018-07-06T02:23:04.387Z,6.80
2018-07-06T02:25:43.628Z,9.05
2018-07-06T02:28:22.824Z,4.50
2018-07-06T02:31:01.956Z,3.50
2018-07-06T02:33:41.184Z,5.78
2018-07-06T02:36:20.364Z,3.87
2018-07-06T02:38:59.784Z,4.65
2018-07-06T02:41:38.953Z,4.60
2018-07-06T02:44:18.050Z,4.47
2018-07-06T02:46:57.290Z,5.97
2018-07-06T02:49:36.428Z,3.30
2018-07-06T02:52:15.579Z,3.70
2018-07-06T02:54:54.776Z,3.65
2018-07-06T02:57:34.064Z,5.05
2018-07-06T03:00:13.237Z,4.32
2018-07-06T03:02:52.368Z,4.40
2018-07-06T03:05:31.534Z,4.05
2018-07-06T03:08:10.727Z,3.08
2018-07-06T03:10:49.938Z,4.25
2018-07-06T03:13:29.171Z,6.18
2018-07-06T03:16:08.344Z,5.62
2018-07-06T03:18:47.771Z,3.50
2018-07-06T03:21:27.322Z,4.50
2018-07-06T03:24:06.786Z,4.40
2018-07-06T03:26:46.027Z,5.47
2018-07-06T03:29:25.110Z,5.72
2018-07-06T03:32:04.287Z,3.95
2018-07-06T03:34:43.597Z,3.12
2018-07-06T03:37:22.964Z,5.03
2018-07-06T03:40:02.144Z,4.65
2018-07-06T03:42:41.357Z,3.45
2018-07-06T03:45:20.453Z,4.75
2018-07-06T03:47:59.625Z,5.68
2018-07-06T03:50:38.724Z,4.80
2018-07-06T03:53:17.955Z,3.75
2018-07-06T03:55:57.158Z,4.22
2018-07-06T03:58:36.255Z,9.20
2018-07-06T04:01:15.452Z,4.43
2018-07-06T04:03:54.592Z,4.43
2018-07-06T04:06:33.712Z,3.97
2018-07-06T04:09:13.101Z,4.05
2018-07-06T04:11:52.328Z,4.40
2018-07-06T04:14:31.446Z,8.38
2018-07-06T04:17:10.573Z,5.78
2018-07-06T04:19:49.799Z,3.92
2018-07-06T04:22:29.177Z,3.08
2018-07-06T04:25:08.486Z,4.18
2018-07-06T04:27:47.665Z,9.13
2018-07-06T04:30:26.835Z,4.07
2018-07-06T04:33:06.186Z,15.13
2018-07-06T04:35:45.419Z,4.70
2018-07-06T04:38:24.690Z,6.30
2018-07-06T04:41:03.958Z,11.38
2018-07-06T04:43:43.038Z,3.70
2018-07-06T04:46:22.302Z,4.55
2018-07-06T04:49:01.610Z,10.93
2018-07-06T04:51:40.963Z,3.83
2018-07-06T04:54:20.160Z,3.40
2018-07-06T04:56:59.358Z,3.90
2018-07-06T04:59:38.527Z,7.00
2018-07-06T05:02:17.666Z,4.00
2018-07-06T05:04:56.826Z,6.40
2018-07-06T05:07:36.150Z,4.12
2018-07-06T05:10:15.297Z,5.15
2018-07-06T05:12:54.564Z,4.68
2018-07-06T05:15:33.788Z,5.30
2018-07-06T05:18:13.158Z,4.70
2018-07-06T05:20:52.357Z,14.73
2018-07-06T05:23:31.551Z,8.48
2018-07-06T05:26:10.875Z,4.35
2018-07-06T05:28:50.249Z,8.48
2018-07-06T05:31:29.424Z,6.32
2018-07-06T05:34:08.554Z,8.27
2018-07-06T05:36:47.638Z,4.20
2018-07-06T05:39:26.811Z,8.55
2018-07-06T05:42:05.893Z,21.83
2018-07-06T05:44:45.041Z,6.03
2018-07-06T05:47:24.029Z,6.53
2018-07-06T05:50:03.227Z,10.35
2018-07-06T05:52:42.415Z,8.73
2018-07-06T05:55:21.772Z,7.37
2018-07-06T05:58:01.079Z,5.10
2018-07-06T06:00:40.279Z,9.38
2018-07-06T06:03:19.553Z,11.05
2018-07-06T06:05:58.719Z,7.45
2018-07-06T06:08:25.574Z,7.95
2018-07-06T06:10:53.008Z,6.45
2018-07-06T06:13:20.515Z,5.37
2018-07-06T06:15:47.910Z,7.72
2018-07-06T06:18:15.403Z,7.30
2018-07-06T06:20:42.827Z,5.57
2018-07-06T06:23:10.803Z,9.38
2018-07-06T06:25:38.210Z,13.18
2018-07-06T06:28:05.675Z,10.88
2018-07-06T06:30:33.111Z,4.97
2018-07-06T06:33:00.566Z,6.35
2018-07-06T06:35:28.010Z,9.65
2018-07-06T06:37:55.474Z,6.95
2018-07-06T06:40:22.918Z,7.72
2018-07-06T06:42:50.438Z,6.05
2018-07-06T06:45:17.929Z,6.00
2018-07-06T06:47:45.382Z,8.18
2018-07-06T06:50:12.941Z,7.10
2018-07-06T06:55:14.225Z,8.35
2018-07-06T06:57:41.732Z,8.10
2018-07-06T07:00:09.165Z,6.15
2018-07-06T07:02:36.622Z,7.20
2018-07-06T07:05:04.084Z,5.78
2018-07-06T07:07:31.660Z,10.63
2018-07-06T07:09:59.100Z,4.78
2018-07-06T07:12:26.557Z,8.40
2018-07-06T07:14:54.016Z,6.95
2018-07-06T07:17:21.426Z,15.70
2018-07-06T07:19:48.861Z,8.75
2018-07-06T07:22:16.331Z,7.53
2018-07-06T07:24:43.771Z,6.07
2018-07-06T07:27:11.296Z,6.90
2018-07-06T07:29:38.867Z,10.82
2018-07-06T07:32:06.539Z,6.12
2018-07-06T07:34:34.031Z,11.55
2018-07-06T07:37:01.456Z,6.65
2018-07-06T07:39:28.847Z,7.50
2018-07-06T07:41:56.468Z,8.93
2018-07-06T07:44:24.042Z,8.00
2018-07-06T07:46:51.516Z,7.12
2018-07-06T07:49:19.079Z,7.15
2018-07-06T07:51:58.263Z,6.93
2018-07-06T07:54:25.897Z,9.10
2018-07-06T07:56:53.369Z,6.82
2018-07-06T07:59:21.300Z,10.93
2018-07-06T08:01:48.723Z,7.45
2018-07-06T08:04:16.163Z,5.90
2018-07-06T08:06:43.653Z,7.00
2018-07-06T08:09:11.102Z,7.43
2018-07-06T08:11:38.519Z,11.10
2018-07-06T08:14:05.951Z,7.95
2018-07-06T08:16:33.365Z,4.37
2018-07-06T08:19:00.810Z,7.62
2018-07-06T08:21:28.312Z,5.90
2018-07-06T08:23:55.729Z,6.65
2018-07-06T08:26:24.511Z,6.55
2018-07-06T08:28:51.982Z,6.72
2018-07-06T08:31:19.420Z,9.15
2018-07-06T08:33:46.877Z,10.40
2018-07-06T08:36:14.439Z,8.20
2018-07-06T08:38:42.012Z,7.47
2018-07-06T08:41:09.460Z,10.05
2018-07-06T08:43:37.039Z,6.28
2018-07-06T08:46:04.518Z,12.68
2018-07-06T08:48:32.452Z,9.40
2018-07-06T08:50:59.921Z,8.02
2018-07-06T08:53:27.446Z,8.02
2018-07-06T08:55:54.971Z,7.70
2018-07-06T08:58:22.532Z,10.52
2018-07-06T09:00:49.945Z,7.07
2018-07-06T09:03:17.377Z,9.95
2018-07-06T09:05:44.811Z,12.77
2018-07-06T09:08:12.214Z,12.98
2018-07-06T09:10:39.679Z,12.40
2018-07-06T09:13:07.182Z,13.13
2018-07-06T09:15:34.575Z,7.10
2018-07-06T09:18:02.047Z,8.95
2018-07-06T09:20:29.470Z,7.35
2018-07-06T09:22:57.444Z,7.43
2018-07-06T09:25:25.109Z,9.13
2018-07-06T09:27:52.530Z,7.90
2018-07-06T09:30:20.032Z,13.57
2018-07-06T09:32:47.460Z,12.75
2018-07-06T09:35:16.089Z,9.77
2018-07-06T09:37:43.595Z,17.37
2018-07-06T09:40:11.088Z,12.05
2018-07-06T09:42:38.556Z,8.65
2018-07-06T09:45:06.019Z,7.35
2018-07-06T09:47:33.524Z,12.32
2018-07-06T09:50:01.019Z,11.95
2018-07-06T09:52:28.463Z,7.55
2018-07-06T09:54:56.220Z,6.75
2018-07-06T09:57:23.715Z,10.52
2018-07-06T09:59:51.174Z,7.22
2018-07-06T10:02:19.269Z,14.02
2018-07-06T10:04:46.790Z,6.03
2018-07-06T10:07:14.261Z,11.23
2018-07-06T10:09:41.808Z,8.40
2018-07-06T10:12:10.305Z,12.95
2018-07-06T10:14:37.838Z,8.85
2018-07-06T10:17:05.315Z,13.98
2018-07-06T10:19:32.862Z,8.52
2018-07-06T10:22:00.357Z,8.85
2018-07-06T10:24:27.789Z,23.10
2018-07-06T10:26:55.284Z,12.68
2018-07-06T10:29:22.678Z,7.20
2018-07-06T10:31:51.054Z,12.37
2018-07-06T10:34:18.652Z,10.98
2018-07-06T10:36:46.096Z,13.55
2018-07-06T10:39:13.562Z,7.75
2018-07-06T10:41:41.049Z,45.05
2018-07-06T10:44:08.565Z,9.15
2018-07-06T11:03:45.257Z,10.68
2018-07-06T11:06:12.790Z,7.93
2018-07-06T11:08:40.368Z,5.62
2018-07-06T11:11:07.962Z,10.95
2018-07-06T11:20:56.368Z,5.65
2018-07-06T11:23:23.796Z,7.25
2018-07-06T11:25:51.236Z,8.15
2018-07-06T11:28:18.679Z,8.18
2018-07-06T11:30:46.341Z,8.13
2018-07-06T11:33:17.703Z,7.87
2018-07-06T11:55:21.215Z,8.85
2018-07-06T11:57:48.670Z,11.93
2018-07-06T12:00:16.254Z,7.55
2018-07-06T13:01:34.710Z,125.28
2018-07-06T13:04:02.172Z,122.30
2018-07-06T13:06:29.687Z,122.57
2018-07-06T13:08:57.142Z,112.90
2018-07-06T13:11:24.573Z,115.88
2018-07-06T13:13:52.072Z,127.00
2018-07-06T13:16:19.501Z,121.72
2018-07-06T13:18:46.937Z,119.07
2018-07-06T13:21:14.502Z,117.55
2018-07-06T13:23:42.088Z,113.28
2018-07-06T13:26:09.591Z,117.50
2018-07-06T13:28:37.085Z,107.70
2018-07-06T13:31:04.543Z,110.75
2018-07-06T13:33:31.991Z,110.40
2018-07-06T13:35:59.435Z,109.43
2018-07-06T13:38:26.870Z,106.18
2018-07-06T13:40:54.387Z,110.90
2018-07-06T13:43:21.868Z,112.80
2018-07-06T13:58:04.957Z,112.12
2018-07-06T14:00:32.564Z,155.52
2018-07-06T14:03:00.031Z,111.07
2018-07-06T14:05:27.528Z,113.05
2018-07-06T14:07:55.013Z,110.78
2018-07-06T14:10:22.506Z,113.80
2018-07-06T14:12:49.956Z,107.65
2018-07-06T14:15:17.642Z,110.95
2018-07-06T14:17:45.099Z,110.20
2018-07-06T14:20:12.716Z,114.80
2018-07-06T14:22:40.167Z,108.53
2018-07-06T14:25:07.920Z,120.85
2018-07-06T14:27:36.190Z,108.05
2018-07-06T14:30:04.806Z,109.30
2018-07-06T14:32:32.731Z,106.72
2018-07-06T14:35:00.278Z,104.45
2018-07-06T14:37:27.651Z,107.55
2018-07-06T14:39:55.077Z,101.40
2018-07-06T14:42:22.699Z,106.85
2018-07-06T14:44:50.172Z,107.60
2018-07-06T14:47:17.717Z,112.85
2018-07-06T14:49:45.256Z,112.57
2018-07-06T14:52:12.718Z,106.35
2018-07-06T14:54:40.134Z,104.63
2018-07-06T14:57:07.601Z,113.45
2018-07-06T14:59:35.374Z,113.72
2018-07-06T15:02:02.948Z,123.87
2018-07-06T15:04:30.420Z,123.07
2018-07-06T15:06:57.921Z,118.85
2018-07-06T15:09:25.423Z,119.35
2018-07-06T15:11:52.890Z,109.75
2018-07-06T15:14:20.444Z,115.93
2018-07-06T15:16:47.923Z,114.85
2018-07-06T15:19:16.248Z,110.72
2018-07-06T15:21:43.710Z,111.93
2018-07-06T15:24:11.368Z,115.60
2018-07-06T15:26:38.804Z,108.25
2018-07-06T15:29:06.363Z,109.53
2018-07-06T15:31:33.847Z,109.87
2018-07-06T15:34:01.319Z,110.28
2018-07-06T15:36:28.785Z,110.75
2018-07-06T15:38:56.235Z,107.12
2018-07-06T15:41:23.702Z,108.05
2018-07-06T15:43:51.268Z,116.85
2018-07-06T15:46:18.718Z,110.63
2018-07-06T15:48:46.165Z,116.62
2018-07-06T15:51:13.683Z,113.00
2018-07-06T15:53:41.183Z,101.07
2018-07-06T15:56:08.662Z,115.97
2018-07-06T15:58:36.238Z,112.93
2018-07-06T16:01:03.736Z,108.47
2018-07-06T16:03:31.268Z,105.85
2018-07-06T16:05:58.745Z,104.05
2018-07-06T16:08:26.382Z,107.55
2018-07-06T16:10:53.849Z,103.32
2018-07-06T16:13:21.376Z,97.15
2018-07-06T16:15:48.869Z,96.35
2018-07-06T16:18:16.306Z,100.60
2018-07-06T16:20:43.790Z,101.20
2018-07-06T16:23:11.283Z,97.40
2018-07-06T16:25:38.784Z,102.95
2018-07-06T16:28:06.263Z,107.93
2018-07-06T16:30:34.265Z,103.38
2018-07-06T16:33:01.813Z,106.78
2018-07-06T16:35:29.313Z,106.45
2018-07-06T16:37:56.882Z,103.00
2018-07-06T16:40:25.538Z,106.50
2018-07-06T16:42:53.105Z,100.75
2018-07-06T16:45:20.654Z,92.65
2018-07-06T16:47:48.473Z,100.28
2018-07-06T16:50:15.978Z,98.75
2018-07-06T16:52:43.569Z,98.75
2018-07-06T16:55:11.153Z,108.78
2018-07-06T16:57:38.636Z,109.50
2018-07-06T17:00:06.404Z,107.25
2018-07-06T17:02:34.756Z,101.00
2018-07-06T17:05:02.334Z,102.72
2018-07-06T17:07:30.409Z,121.30
2018-07-06T17:09:57.997Z,95.25
2018-07-06T17:12:25.695Z,97.37
2018-07-06T17:14:53.161Z,104.22
2018-07-06T17:17:20.672Z,108.30
2018-07-06T17:19:48.878Z,101.30
2018-07-06T17:22:16.477Z,99.00
2018-07-06T17:24:45.542Z,103.47
2018-07-06T17:27:13.033Z,106.28
2018-07-06T17:29:40.503Z,101.10
2018-07-06T17:32:08.677Z,113.40
2018-07-06T17:34:36.274Z,112.72
2018-07-06T17:37:03.804Z,101.82
2018-07-06T17:39:31.344Z,100.38
2018-07-06T17:41:59.017Z,108.47
2018-07-06T17:44:26.629Z,109.32
2018-07-06T17:46:54.063Z,106.12
2018-07-06T17:49:21.571Z,99.05
2018-07-06T17:51:49.068Z,98.62
2018-07-06T17:54:16.501Z,98.35
2018-07-06T17:56:44.005Z,108.90
2018-07-06T17:59:11.472Z,98.60
2018-07-06T18:01:39.064Z,97.62
2018-07-06T18:04:06.568Z,106.75
2018-07-06T18:06:34.006Z,105.93
2018-07-06T18:09:01.606Z,102.93
2018-07-06T18:11:29.621Z,106.75
2018-07-06T18:13:57.313Z,106.05
2018-07-06T18:16:24.876Z,104.80
2018-07-06T18:18:52.689Z,112.95
2018-07-06T18:21:20.203Z,100.53
2018-07-06T18:23:47.654Z,106.00
2018-07-06T18:26:15.131Z,102.15
2018-07-06T18:28:42.667Z,101.72
2018-07-06T18:31:10.111Z,9.30
2018-07-06T18:33:37.639Z,10.07
2018-07-06T18:36:05.172Z,10.70
2018-07-06T18:38:32.659Z,8.65
2018-07-06T18:41:00.063Z,7.65
2018-07-06T18:43:28.276Z,8.02
2018-07-06T18:45:55.776Z,8.57
2018-07-06T18:48:23.195Z,8.30
2018-07-06T18:50:50.671Z,8.65
2018-07-06T18:53:18.131Z,10.27
2018-07-06T18:55:45.674Z,9.55
2018-07-06T18:58:13.146Z,8.45
2018-07-06T19:00:40.590Z,11.68
2018-07-06T19:03:08.102Z,11.75
2018-07-06T19:05:35.552Z,9.13
2018-07-06T19:08:03.639Z,10.43
2018-07-06T19:10:31.267Z,10.18
2018-07-06T19:12:58.792Z,7.00
2018-07-06T19:15:26.404Z,6.72
2018-07-06T19:17:53.830Z,7.15
2018-07-06T19:20:21.337Z,6.87
2018-07-06T19:22:48.918Z,7.78
2018-07-06T19:25:16.311Z,9.30
2018-07-06T19:27:43.796Z,7.57
2018-07-06T19:30:11.295Z,8.77
2018-07-06T19:32:38.696Z,9.45
2018-07-06T19:35:06.208Z,9.00
2018-07-06T19:37:33.634Z,10.15
2018-07-06T19:40:01.130Z,6.68
2018-07-06T19:42:28.619Z,7.68
2018-07-06T19:44:56.225Z,10.57
2018-07-06T19:47:23.693Z,9.35
2018-07-06T19:49:51.142Z,18.48
2018-07-06T19:52:18.647Z,7.70
2018-07-06T19:54:46.140Z,8.05
2018-07-06T19:57:13.586Z,9.00
2018-07-06T19:59:41.103Z,8.07
2018-07-06T20:02:08.601Z,12.75
2018-07-06T20:04:36.406Z,10.57
2018-07-06T20:07:03.888Z,13.20
2018-07-06T20:09:31.330Z,13.05
2018-07-06T20:11:58.800Z,12.68
2018-07-06T20:14:26.378Z,8.38
2018-07-06T20:16:53.835Z,12.27
2018-07-06T20:19:21.563Z,10.38
2018-07-06T20:21:54.200Z,11.88
2018-07-06T20:24:21.758Z,9.90
2018-07-06T20:26:51.291Z,8.80
2018-07-06T20:29:18.962Z,8.60
2018-07-06T20:31:46.448Z,15.32
2018-07-06T20:34:13.913Z,9.90
2018-07-06T20:36:41.438Z,9.27
2018-07-06T20:39:08.928Z,8.63
2018-07-06T20:41:37.354Z,12.93
2018-07-06T20:44:04.841Z,11.98
2018-07-06T20:46:32.291Z,9.93
2018-07-06T20:48:59.752Z,11.98
2018-07-06T20:51:27.215Z,10.18
2018-07-06T20:53:54.692Z,13.85
2018-07-06T20:56:22.085Z,8.65
2018-07-06T20:58:49.511Z,8.20
2018-07-06T21:01:16.906Z,8.65
2018-07-06T21:03:44.412Z,9.07
2018-07-06T21:06:12.188Z,9.15
2018-07-06T21:08:39.589Z,12.35
2018-07-06T21:11:07.007Z,8.60
2018-07-06T21:13:34.447Z,7.72
2018-07-06T21:16:02.039Z,12.90
2018-07-06T21:18:29.437Z,14.93
2018-07-06T21:20:56.862Z,8.75
2018-07-06T21:23:24.320Z,8.07
2018-07-06T21:25:51.849Z,8.20
2018-07-06T21:28:19.298Z,7.93
2018-07-06T21:30:46.853Z,8.75
2018-07-06T21:33:14.305Z,13.85
2018-07-06T21:35:41.755Z,6.30
2018-07-06T21:38:09.204Z,9.63
2018-07-06T21:40:36.639Z,7.20
2018-07-06T21:43:04.225Z,10.77
2018-07-06T21:45:31.651Z,16.10
2018-07-06T21:47:59.147Z,6.60
2018-07-06T21:50:26.640Z,6.72
2018-07-06T21:52:54.136Z,10.40
2018-07-06T21:55:21.555Z,7.18
2018-07-06T21:57:49.004Z,6.35
2018-07-06T22:00:16.590Z,5.80
2018-07-06T22:02:44.052Z,9.68
2018-07-06T22:05:11.539Z,8.57
2018-07-06T22:07:38.972Z,7.50
2018-07-06T22:10:06.488Z,14.80
2018-07-06T22:12:33.889Z,9.05
2018-07-06T22:15:01.298Z,5.72
2018-07-06T22:17:28.721Z,8.88
2018-07-06T22:19:56.217Z,7.82
2018-07-06T22:22:23.677Z,8.02
2018-07-06T22:24:51.204Z,8.27
2018-07-06T22:27:18.643Z,6.37
2018-07-06T22:29:46.242Z,7.80
2018-07-06T22:32:14.364Z,11.12
2018-07-06T22:34:42.027Z,6.05
2018-07-06T22:37:09.504Z,6.62
2018-07-06T22:39:37.109Z,7.47
2018-07-06T22:42:04.600Z,8.60
2018-07-06T22:44:32.153Z,7.60
2018-07-06T22:46:59.596Z,5.62
2018-07-06T22:49:27.283Z,6.95
2018-07-06T22:51:54.765Z,5.95
2018-07-06T22:54:22.212Z,10.35
2018-07-06T22:56:49.655Z,7.05
2018-07-06T22:59:17.164Z,7.10
2018-07-06T23:01:44.656Z,7.00
2018-07-06T23:04:12.228Z,6.25
2018-07-06T23:06:39.681Z,11.43
2018-07-06T23:09:07.104Z,7.40
2018-07-06T23:11:34.590Z,6.62
2018-07-06T23:14:02.326Z,5.55
2018-07-06T23:16:29.780Z,6.25
2018-07-06T23:18:57.312Z,16.08
2018-07-06T23:21:24.737Z,6.75
2018-07-06T23:23:52.223Z,7.78
2018-07-06T23:26:19.612Z,7.40
2018-07-06T23:28:47.051Z,7.47
2018-07-06T23:31:14.485Z,8.52
2018-07-06T23:33:41.934Z,6.82
2018-07-06T23:36:09.504Z,9.10
2018-07-06T23:38:37.024Z,8.07
2018-07-06T23:41:04.514Z,6.53
2018-07-06T23:43:31.926Z,7.10
2018-07-06T23:45:59.468Z,7.07
2018-07-06T23:48:26.914Z,9.77
2018-07-06T23:50:54.393Z,9.43
2018-07-06T23:53:21.875Z,6.15
2018-07-06T23:55:49.421Z,7.15
2018-07-06T23:58:16.885Z,8.80
